createdAt,value
2019-04-10T00:00:45.848Z,96278.56
2019-04-10T00:03:25.825Z,96279.52
2019-04-10T00:05:48.074Z,96286.00
2019-04-10T00:08:18.311Z,96280.64
2019-04-10T00:10:48.659Z,96282.59
2019-04-10T00:13:18.880Z,96285.52
2019-04-10T00:15:49.169Z,96281.47
2019-04-10T00:18:20.017Z,96276.36
2019-04-10T00:20:51.095Z,96280.03
2019-04-10T00:23:21.321Z,96281.73
2019-04-10T00:25:51.668Z,96288.44
2019-04-10T00:28:21.931Z,96279.66
2019-04-10T00:30:52.183Z,96275.16
2019-04-10T00:33:22.904Z,96274.77
2019-04-10T00:35:54.009Z,96274.67
2019-04-10T00:38:24.311Z,96276.49
2019-04-10T00:40:55.452Z,96279.42
2019-04-10T00:43:26.913Z,96279.30
2019-04-10T00:45:57.883Z,96277.95
2019-04-10T00:48:28.038Z,96270.39
2019-04-10T00:50:59.242Z,96273.93
2019-04-10T00:53:29.626Z,96268.09
2019-04-10T00:55:59.970Z,96267.22
2019-04-10T00:58:31.947Z,96270.39
2019-04-10T01:01:03.399Z,96270.03
2019-04-10T01:03:43.500Z,96266.63
2019-04-10T01:06:14.328Z,96257.59
2019-04-10T01:08:44.814Z,96258.67
2019-04-10T01:11:15.731Z,96258.20
2019-04-10T01:13:46.024Z,96256.98
2019-04-10T01:16:16.484Z,96256.38
2019-04-10T01:18:48.005Z,96252.83
2019-04-10T01:21:18.276Z,96252.58
2019-04-10T01:23:49.041Z,96247.21
2019-04-10T01:26:19.312Z,96254.78
2019-04-10T01:28:49.590Z,96248.34
2019-04-10T01:31:20.021Z,96246.14
2019-04-10T01:33:50.685Z,96239.91
2019-04-10T01:36:20.944Z,96243.19
2019-04-10T01:38:52.221Z,96239.43
2019-04-10T01:41:22.410Z,96242.46
2019-04-10T01:43:52.740Z,96238.44
2019-04-10T01:46:24.071Z,96241.50
2019-04-10T01:48:55.502Z,96239.78
2019-04-10T01:51:25.795Z,96236.40
2019-04-10T01:53:57.028Z,96237.36
2019-04-10T01:56:31.463Z,96239.43
2019-04-10T01:58:59.332Z,96229.43
2019-04-10T02:01:34.587Z,96237.61
2019-04-10T02:04:04.926Z,96233.08
2019-04-10T02:06:35.761Z,96236.48
2019-04-10T02:09:08.871Z,96237.48
2019-04-10T02:11:39.853Z,96231.63
2019-04-10T02:14:10.170Z,96230.77
2019-04-10T02:16:41.142Z,96233.59
2019-04-10T02:19:12.191Z,96234.41
2019-04-10T02:21:42.482Z,96229.31
2019-04-10T02:24:12.735Z,96232.47
2019-04-10T02:26:43.453Z,96239.08
2019-04-10T02:29:13.787Z,96239.18
2019-04-10T02:31:44.243Z,96236.88
2019-04-10T02:34:15.033Z,96229.80
2019-04-10T02:36:46.949Z,96225.29
2019-04-10T02:39:25.713Z,96231.03
2019-04-10T02:41:49.982Z,96234.20
2019-04-10T02:44:20.651Z,96234.81
2019-04-10T02:46:51.892Z,96234.94
2019-04-10T02:49:22.727Z,96237.02
2019-04-10T02:51:52.995Z,96234.33
2019-04-10T02:54:24.941Z,96239.56
2019-04-10T02:56:55.055Z,96233.34
2019-04-10T02:59:26.862Z,96235.67
2019-04-10T03:01:57.985Z,96225.91
2019-04-10T03:04:28.579Z,96231.13
2019-04-10T03:06:59.998Z,96239.70
2019-04-10T03:09:44.576Z,96240.17
2019-04-10T03:12:03.610Z,96240.04
2019-04-10T03:14:34.635Z,96238.22
2019-04-10T03:17:05.930Z,96236.88
2019-04-10T03:19:38.184Z,96238.09
2019-04-10T03:22:09.036Z,96244.45
2019-04-10T03:24:40.173Z,96243.59
2019-04-10T03:27:10.455Z,96238.09
2019-04-10T03:29:40.721Z,96237.74
2019-04-10T03:32:41.636Z,96238.22
2019-04-10T03:35:16.790Z,96242.72
2019-04-10T03:37:46.982Z,96245.27
2019-04-10T03:40:17.478Z,96239.43
2019-04-10T03:42:47.770Z,96235.06
2019-04-10T03:45:18.034Z,96238.70
2019-04-10T03:47:49.344Z,96238.22
2019-04-10T03:50:19.675Z,96241.77
2019-04-10T03:52:49.942Z,96238.70
2019-04-10T03:55:20.971Z,96235.89
2019-04-10T03:57:52.020Z,96239.91
2019-04-10T04:00:22.745Z,96235.06
2019-04-10T04:02:53.844Z,96236.27
2019-04-10T04:05:24.543Z,96232.47
2019-04-10T04:07:57.126Z,96232.86
2019-04-10T04:10:27.461Z,96232.86
2019-04-10T04:12:57.617Z,96235.53
2019-04-10T04:15:28.191Z,96240.04
2019-04-10T04:17:58.524Z,96236.63
2019-04-10T04:20:28.831Z,96241.86
2019-04-10T04:22:59.227Z,96241.25
2019-04-10T04:25:30.383Z,96242.11
2019-04-10T04:28:00.743Z,96242.59
2019-04-10T04:30:34.151Z,96246.00
2019-04-10T04:33:04.741Z,96249.17
2019-04-10T04:35:35.097Z,96257.11
2019-04-10T04:38:05.297Z,96258.45
2019-04-10T04:40:35.688Z,96256.38
2019-04-10T04:43:10.290Z,96261.48
2019-04-10T04:45:40.539Z,96260.63
2019-04-10T04:48:10.931Z,96260.89
2019-04-10T04:50:41.634Z,96262.34
2019-04-10T04:53:12.563Z,96263.43
2019-04-10T04:55:44.911Z,96263.56
2019-04-10T04:58:16.024Z,96263.81
2019-04-10T05:00:46.231Z,96264.29
2019-04-10T05:03:16.462Z,96265.63
2019-04-10T05:05:47.589Z,96269.41
2019-04-10T05:08:18.022Z,96273.33
2019-04-10T05:10:48.177Z,96279.30
2019-04-10T05:13:18.407Z,96279.52
2019-04-10T05:15:49.246Z,96274.54
2019-04-10T05:18:19.506Z,96281.50
2019-04-10T05:20:50.961Z,96275.88
2019-04-10T05:23:22.691Z,96281.72
2019-04-10T05:25:53.865Z,96283.92
2019-04-10T05:28:24.468Z,96291.36
2019-04-10T05:30:55.181Z,96289.53
2019-04-10T05:33:26.786Z,96297.45
2019-04-10T05:35:57.133Z,96296.36
2019-04-10T05:38:27.398Z,96295.37
2019-04-10T05:40:57.623Z,96293.06
2019-04-10T05:43:28.261Z,96300.64
2019-04-10T05:45:59.279Z,96303.42
2019-04-10T05:48:29.558Z,96299.64
2019-04-10T05:51:04.064Z,96300.86
2019-04-10T05:53:32.449Z,96303.32
2019-04-10T05:56:04.169Z,96305.49
2019-04-10T05:58:35.509Z,96302.80
2019-04-10T06:01:07.574Z,96308.91
2019-04-10T06:03:38.720Z,96309.77
2019-04-10T06:06:09.008Z,96309.64
2019-04-10T06:08:39.465Z,96311.48
2019-04-10T06:11:10.735Z,96309.64
2019-04-10T06:13:40.977Z,96297.21
2019-04-10T06:16:11.868Z,96292.70
2019-04-10T06:18:43.073Z,96307.95
2019-04-10T06:21:13.300Z,96320.37
2019-04-10T06:23:43.517Z,96328.42
2019-04-10T06:26:16.536Z,96331.11
2019-04-10T06:28:46.490Z,96327.59
2019-04-10T06:31:16.861Z,96329.41
2019-04-10T06:33:47.118Z,96328.07
2019-04-10T06:36:17.543Z,96335.98
2019-04-10T06:38:47.792Z,96336.12
2019-04-10T06:41:19.250Z,96342.22
2019-04-10T06:43:50.600Z,96345.86
2019-04-10T06:46:20.769Z,96346.38
2019-04-10T06:48:52.127Z,96348.45
2019-04-10T06:51:22.311Z,96351.13
2019-04-10T06:54:00.971Z,96352.95
2019-04-10T06:56:25.019Z,96350.14
2019-04-10T06:58:56.216Z,96354.30
2019-04-10T07:01:39.043Z,96348.92
2019-04-10T07:04:03.628Z,96350.62
2019-04-10T07:06:48.325Z,96348.45
2019-04-10T07:09:05.326Z,96347.45
2019-04-10T07:11:37.262Z,96344.77
2019-04-10T07:14:10.399Z,96348.66
2019-04-10T07:16:40.244Z,96341.61
2019-04-10T07:19:12.998Z,96342.22
2019-04-10T07:21:42.783Z,96346.59
2019-04-10T07:24:15.038Z,96349.66
2019-04-10T07:26:47.447Z,96348.80
2019-04-10T07:29:20.998Z,96357.23
2019-04-10T07:31:48.912Z,96356.38
2019-04-10T07:34:22.016Z,96359.91
2019-04-10T07:36:51.961Z,96357.70
2019-04-10T07:39:26.018Z,96356.72
2019-04-10T07:41:54.230Z,96357.23
2019-04-10T07:44:24.474Z,96355.38
2019-04-10T07:46:54.998Z,96358.92
2019-04-10T07:49:29.969Z,96355.76
2019-04-10T07:51:58.740Z,96353.42
2019-04-10T07:54:28.970Z,96349.05
2019-04-10T07:56:59.903Z,96356.63
2019-04-10T07:59:31.212Z,96353.94
2019-04-10T08:02:02.502Z,96358.80
2019-04-10T08:04:33.183Z,96356.49
2019-04-10T08:07:03.450Z,96368.56
2019-04-10T08:09:33.673Z,96370.39
2019-04-10T08:12:05.045Z,96373.55
2019-04-10T08:14:35.766Z,96378.83
2019-04-10T08:17:06.120Z,96377.09
2019-04-10T08:19:37.624Z,96378.44
2019-04-10T08:22:08.329Z,96369.53
2019-04-10T08:24:38.675Z,96374.41
2019-04-10T08:27:10.297Z,96382.47
2019-04-10T08:29:40.882Z,96381.98
2019-04-10T08:32:11.863Z,96386.02
2019-04-10T08:34:42.253Z,96384.28
2019-04-10T08:37:12.528Z,96385.15
2019-04-10T08:39:45.708Z,96389.17
2019-04-10T08:42:14.839Z,96382.59
2019-04-10T08:44:45.062Z,96389.17
2019-04-10T08:47:15.362Z,96389.66
2019-04-10T08:49:45.553Z,96391.86
2019-04-10T08:52:16.608Z,96393.68
2019-04-10T08:54:46.884Z,96392.85
2019-04-10T08:57:17.234Z,96398.09
2019-04-10T08:59:48.323Z,96393.81
2019-04-10T09:02:18.695Z,96399.05
2019-04-10T09:04:49.096Z,96394.06
2019-04-10T09:07:19.992Z,96390.52
2019-04-10T09:09:52.194Z,96392.34
2019-04-10T09:12:22.466Z,96396.75
2019-04-10T09:14:53.791Z,96393.45
2019-04-10T09:17:24.989Z,96392.97
2019-04-10T09:19:55.381Z,96396.14
2019-04-10T09:22:25.842Z,96397.96
2019-04-10T09:24:56.027Z,96403.81
2019-04-10T09:27:26.809Z,96393.45
2019-04-10T09:29:57.236Z,96403.20
2019-04-10T09:32:28.665Z,96401.50
2019-04-10T09:34:59.003Z,96406.61
2019-04-10T09:37:31.005Z,96400.89
2019-04-10T09:40:01.186Z,96402.72
2019-04-10T09:42:31.408Z,96393.80
2019-04-10T09:45:02.672Z,96394.19
2019-04-10T09:47:32.947Z,96397.22
2019-04-10T09:50:03.222Z,96394.92
2019-04-10T09:52:33.461Z,96397.60
2019-04-10T09:55:03.681Z,96397.73
2019-04-10T09:57:34.619Z,96398.47
2019-04-10T10:00:05.355Z,96397.22
2019-04-10T10:02:37.976Z,96396.73
2019-04-10T10:05:08.457Z,96399.81
2019-04-10T10:07:39.105Z,96399.55
2019-04-10T10:10:10.851Z,96398.08
2019-04-10T10:12:41.183Z,96394.92
2019-04-10T10:15:11.495Z,96396.26
2019-04-10T10:17:41.729Z,96390.52
2019-04-10T10:20:12.012Z,96390.52
2019-04-10T10:22:42.239Z,96393.92
2019-04-10T10:25:13.169Z,96396.61
2019-04-10T10:27:43.466Z,96388.08
2019-04-10T10:30:13.778Z,96382.36
2019-04-10T10:32:44.196Z,96383.06
2019-04-10T10:35:14.685Z,96385.14
2019-04-10T10:37:44.999Z,96393.20
2019-04-10T10:40:15.324Z,96388.81
2019-04-10T10:42:45.909Z,96389.78
2019-04-10T10:45:16.746Z,96390.16
2019-04-10T10:47:48.518Z,96392.36
2019-04-10T10:50:19.626Z,96393.58
2019-04-10T10:52:50.125Z,96394.29
2019-04-10T10:55:21.313Z,96393.20
2019-04-10T10:57:51.613Z,96387.36
2019-04-10T11:00:23.094Z,96391.26
2019-04-10T11:02:54.005Z,96384.55
2019-04-10T11:05:25.265Z,96384.16
2019-04-10T11:07:55.932Z,96389.05
2019-04-10T11:10:27.666Z,96392.22
2019-04-10T11:12:58.485Z,96385.16
2019-04-10T11:15:28.964Z,96386.38
2019-04-10T11:18:00.747Z,96386.23
2019-04-10T11:20:32.078Z,96386.23
2019-04-10T11:23:03.975Z,96384.80
2019-04-10T11:25:35.838Z,96387.96
2019-04-10T11:28:07.547Z,96390.17
2019-04-10T11:30:37.955Z,96390.65
2019-04-10T11:33:08.533Z,96390.27
2019-04-10T11:35:39.650Z,96386.14
2019-04-10T11:38:10.953Z,96388.83
2019-04-10T11:40:41.470Z,96390.91
2019-04-10T11:43:12.568Z,96389.66
2019-04-10T11:45:51.419Z,96384.28
2019-04-10T11:48:19.709Z,96387.96
2019-04-10T11:50:50.883Z,96388.83
2019-04-10T11:53:21.548Z,96389.56
2019-04-10T11:55:53.664Z,96394.20
2019-04-10T11:58:25.240Z,96395.41
2019-04-10T12:00:59.107Z,96393.20
2019-04-10T12:03:27.394Z,96389.91
2019-04-10T12:05:59.581Z,96391.63
2019-04-10T12:13:32.446Z,96392.24
2019-04-10T12:16:03.063Z,96389.56
2019-04-10T12:18:33.312Z,96392.59
2019-04-10T12:21:03.597Z,96387.83
2019-04-10T12:23:34.754Z,96390.91
2019-04-10T12:26:06.061Z,96385.53
2019-04-10T12:28:36.236Z,96376.97
2019-04-10T12:31:07.929Z,96376.88
2019-04-10T12:33:38.129Z,96372.94
2019-04-10T12:36:12.063Z,96378.83
2019-04-10T12:38:43.483Z,96378.22
2019-04-10T12:41:14.945Z,96378.22
2019-04-10T12:43:47.355Z,96377.70
2019-04-10T12:46:18.106Z,96381.25
2019-04-10T12:48:50.650Z,96375.14
2019-04-10T12:51:21.517Z,96376.74
2019-04-10T12:53:52.038Z,96372.72
2019-04-10T12:56:22.208Z,96372.84
2019-04-10T12:58:53.015Z,96374.06
2019-04-10T13:01:24.765Z,96373.33
2019-04-10T13:03:55.726Z,96371.98
2019-04-10T13:06:26.290Z,96367.58
2019-04-10T13:09:05.770Z,96367.95
2019-04-10T13:11:29.303Z,96365.27
2019-04-10T13:14:00.097Z,96365.75
2019-04-10T13:16:34.180Z,96371.85
2019-04-10T13:19:07.005Z,96369.55
2019-04-10T13:21:37.291Z,96364.66
2019-04-10T13:24:07.577Z,96366.00
2019-04-10T13:26:37.840Z,96365.39
2019-04-10T13:29:07.961Z,96364.91
2019-04-10T13:31:38.321Z,96365.02
2019-04-10T13:34:09.043Z,96359.55
2019-04-10T13:36:40.361Z,96361.47
2019-04-10T13:39:12.889Z,96368.94
2019-04-10T13:41:44.873Z,96369.89
2019-04-10T13:44:16.262Z,96362.83
2019-04-10T13:46:47.211Z,96366.12
2019-04-10T13:49:17.779Z,96366.59
2019-04-10T13:51:48.079Z,96366.25
2019-04-10T13:54:19.404Z,96366.98
2019-04-10T13:56:49.661Z,96358.32
2019-04-10T13:59:20.698Z,96354.64
2019-04-10T14:01:52.000Z,96356.63
2019-04-10T14:04:23.522Z,96353.80
2019-04-10T14:06:55.614Z,96351.96
2019-04-10T14:09:35.796Z,96347.94
2019-04-10T14:11:58.011Z,96353.69
2019-04-10T14:14:28.764Z,96353.33
2019-04-10T14:16:59.318Z,96356.74
2019-04-10T14:19:31.902Z,96349.52
2019-04-10T14:22:02.166Z,96348.08
2019-04-10T14:24:40.255Z,96346.95
2019-04-10T14:27:14.241Z,96348.06
2019-04-10T14:29:44.864Z,96346.72
2019-04-10T14:32:24.933Z,96346.72
2019-04-10T14:34:55.216Z,96348.41
2019-04-10T14:37:25.840Z,96350.62
2019-04-10T14:39:56.006Z,96350.87
2019-04-10T14:42:26.608Z,96347.45
2019-04-10T14:44:57.213Z,96353.17
2019-04-10T14:47:28.108Z,96349.76
2019-04-10T14:49:58.364Z,96345.25
2019-04-10T14:52:29.442Z,96346.59
2019-04-10T14:55:00.194Z,96349.29
2019-04-10T14:57:30.873Z,96351.23
2019-04-10T15:00:01.160Z,96345.88
2019-04-10T15:02:32.978Z,96350.14
2019-04-10T15:05:03.761Z,96347.58
2019-04-10T15:07:35.108Z,96338.92
2019-04-10T15:10:07.299Z,96337.57
2019-04-10T15:12:37.521Z,96340.89
2019-04-10T15:15:08.502Z,96342.45
2019-04-10T15:17:38.723Z,96334.17
2019-04-10T15:20:09.037Z,96339.27
2019-04-10T15:22:40.060Z,96337.20
2019-04-10T15:25:10.884Z,96332.34
2019-04-10T15:27:41.680Z,96335.25
2019-04-10T15:30:14.609Z,96332.47
2019-04-10T15:32:45.423Z,96332.56
2019-04-10T15:35:15.954Z,96327.70
2019-04-10T15:37:47.291Z,96329.53
2019-04-10T15:40:20.864Z,96334.77
2019-04-10T15:42:49.613Z,96338.45
2019-04-10T15:45:19.789Z,96337.58
2019-04-10T15:47:54.233Z,96337.20
2019-04-10T15:50:22.133Z,96344.64
2019-04-10T15:52:53.669Z,96339.79
2019-04-10T15:55:25.826Z,96336.85
2019-04-10T15:57:59.343Z,96341.13
2019-04-10T16:00:29.410Z,96347.59
2019-04-10T16:03:00.768Z,96347.33
2019-04-10T16:05:31.461Z,96344.05
2019-04-10T16:08:03.989Z,96343.69
2019-04-10T16:10:52.994Z,96342.83
2019-04-10T16:13:30.350Z,96341.01
2019-04-10T16:16:12.372Z,96343.56
2019-04-10T16:18:42.591Z,96344.52
2019-04-10T16:21:12.867Z,96351.98
2019-04-10T16:23:47.710Z,96348.44
2019-04-10T16:26:18.840Z,96338.05
2019-04-10T16:28:49.071Z,96349.17
2019-04-10T16:31:19.441Z,96343.56
2019-04-10T16:33:50.514Z,96344.64
2019-04-10T16:36:21.368Z,96346.12
2019-04-10T16:38:51.559Z,96352.69
2019-04-10T16:41:21.801Z,96346.25
2019-04-10T16:43:52.872Z,96348.20
2019-04-10T16:46:23.798Z,96342.55
2019-04-10T16:48:54.136Z,96348.06
2019-04-10T16:51:24.549Z,96348.32
2019-04-10T16:53:55.922Z,96340.88
2019-04-10T16:56:26.444Z,96343.30
2019-04-10T16:58:56.676Z,96346.84
2019-04-10T17:01:26.996Z,96351.48
2019-04-10T17:03:58.540Z,96345.98
2019-04-10T17:06:30.264Z,96350.87
2019-04-10T17:09:00.871Z,96352.22
2019-04-10T17:11:32.009Z,96352.95
2019-04-10T17:14:02.792Z,96357.70
2019-04-10T17:16:33.546Z,96352.22
2019-04-10T17:19:05.694Z,96356.46
2019-04-10T17:21:36.274Z,96347.33
2019-04-10T17:24:07.242Z,96346.72
2019-04-10T17:26:37.477Z,96346.97
2019-04-10T17:29:09.082Z,96341.95
2019-04-10T17:31:40.431Z,96348.44
2019-04-10T17:34:11.382Z,96350.86
2019-04-10T17:36:43.473Z,96353.80
2019-04-10T17:39:17.858Z,96350.52
2019-04-10T17:41:48.436Z,96350.86
2019-04-10T17:44:21.364Z,96356.61
2019-04-10T17:46:53.396Z,96354.28
2019-04-10T17:49:25.619Z,96352.59
2019-04-10T17:51:56.643Z,96356.95
2019-04-10T17:54:28.187Z,96357.69
2019-04-10T17:56:58.817Z,96355.88
2019-04-10T17:59:30.211Z,96356.25
2019-04-10T18:02:03.241Z,96359.03
2019-04-10T18:04:33.968Z,96362.22
2019-04-10T18:07:05.991Z,96367.34
2019-04-10T18:09:37.009Z,96369.16
2019-04-10T18:12:09.922Z,96365.86
2019-04-10T18:14:41.449Z,96375.89
2019-04-10T18:17:12.714Z,96377.46
2019-04-10T18:19:44.135Z,96380.63
2019-04-10T18:22:14.571Z,96381.00
2019-04-10T18:24:45.390Z,96387.71
2019-04-10T18:27:16.403Z,96391.13
2019-04-10T18:29:47.602Z,96388.83
2019-04-10T18:32:18.345Z,96393.58
2019-04-10T18:34:49.915Z,96396.14
2019-04-10T18:37:24.865Z,96396.14
2019-04-10T18:39:53.026Z,96397.83
2019-04-10T18:42:24.374Z,96399.08
2019-04-10T18:44:55.481Z,96400.42
2019-04-10T18:47:27.026Z,96408.09
2019-04-10T18:49:58.029Z,96404.31
2019-04-10T18:52:29.639Z,96411.50
2019-04-10T18:55:00.460Z,96411.76
2019-04-10T18:57:33.678Z,96411.76
2019-04-10T19:00:21.813Z,96409.07
2019-04-10T19:03:21.340Z,96406.87
2019-04-10T19:05:56.278Z,96410.03
2019-04-10T19:08:26.595Z,96409.42
2019-04-10T19:11:13.107Z,96410.03
2019-04-10T19:13:29.458Z,96409.20
2019-04-10T19:16:01.372Z,96400.28
2019-04-10T19:18:32.166Z,96414.55
2019-04-10T19:21:03.232Z,96412.25
2019-04-10T19:23:34.067Z,96414.33
2019-04-10T19:26:05.227Z,96416.28
2019-04-10T19:28:38.445Z,96417.49
2019-04-10T19:31:18.132Z,96413.47
2019-04-10T19:33:45.626Z,96411.52
2019-04-10T19:36:15.931Z,96416.38
2019-04-10T19:38:46.677Z,96412.86
2019-04-10T19:41:25.244Z,96417.23
2019-04-10T19:43:49.138Z,96417.23
2019-04-10T19:46:21.564Z,96423.21
2019-04-10T19:48:53.462Z,96422.86
2019-04-10T19:51:24.104Z,96427.02
2019-04-10T19:53:54.626Z,96423.84
2019-04-10T19:56:25.263Z,96418.34
2019-04-10T19:58:56.536Z,96416.88
2019-04-10T20:01:30.044Z,96414.19
2019-04-10T20:03:59.814Z,96416.27
2019-04-10T20:06:30.527Z,96417.60
2019-04-10T20:09:00.955Z,96426.05
2019-04-10T20:11:39.032Z,96423.36
2019-04-10T20:14:06.293Z,96422.49
2019-04-10T20:16:37.513Z,96426.15
2019-04-10T20:19:10.214Z,96429.22
2019-04-10T20:21:40.567Z,96430.30
2019-04-10T20:24:11.008Z,96421.63
2019-04-10T20:26:41.330Z,96417.60
2019-04-10T20:29:11.594Z,96422.97
2019-04-10T20:31:43.533Z,96424.70
2019-04-10T20:34:14.136Z,96424.31
2019-04-10T20:36:44.841Z,96421.89
2019-04-10T20:39:15.183Z,96420.04
2019-04-10T20:41:51.999Z,96425.54
2019-04-10T20:44:18.653Z,96420.65
2019-04-10T20:46:49.177Z,96420.55
2019-04-10T20:49:20.416Z,96421.28
2019-04-10T20:51:50.702Z,96427.13
2019-04-10T20:54:20.968Z,96426.66
2019-04-10T20:56:51.122Z,96429.44
2019-04-10T20:59:21.310Z,96429.22
2019-04-10T21:01:51.543Z,96429.31
2019-04-10T21:04:21.807Z,96430.68
2019-04-10T21:06:52.286Z,96430.68
2019-04-10T21:09:23.602Z,96431.41
2019-04-10T21:12:02.147Z,96428.36
2019-04-10T21:14:25.870Z,96419.20
2019-04-10T21:16:56.204Z,96419.56
2019-04-10T21:19:26.951Z,96421.38
2019-04-10T21:21:57.562Z,96422.98
2019-04-10T21:24:27.774Z,96420.30
2019-04-10T21:26:58.985Z,96417.48
2019-04-10T21:30:07.266Z,96414.80
2019-04-10T21:32:56.740Z,96410.89
2019-04-10T21:35:31.203Z,96407.22
2019-04-10T21:38:02.630Z,96405.04
2019-04-10T21:40:33.292Z,96404.05
2019-04-10T21:43:03.796Z,96397.23
2019-04-10T21:45:35.060Z,96399.19
2019-04-10T21:48:06.370Z,96399.06
2019-04-10T21:50:37.695Z,96395.03
2019-04-10T21:53:08.430Z,96399.06
2019-04-10T21:55:39.568Z,96391.86
2019-04-10T21:58:10.240Z,96396.27
2019-04-10T22:01:15.644Z,96395.31
2019-04-10T22:03:46.268Z,96395.89
2019-04-10T22:06:39.453Z,96389.80
2019-04-10T22:09:35.191Z,96395.16
2019-04-10T22:12:23.751Z,96401.36
2019-04-10T22:14:45.977Z,96394.91
2019-04-10T22:17:17.051Z,96394.30
2019-04-10T22:19:47.438Z,96401.02
2019-04-10T22:22:18.150Z,96400.15
2019-04-10T22:24:48.648Z,96398.81
2019-04-10T22:27:19.073Z,96392.23
2019-04-10T22:29:49.349Z,96394.66
2019-04-10T22:32:19.626Z,96396.48
2019-04-10T22:34:50.566Z,96392.36
2019-04-10T22:37:21.550Z,96389.16
2019-04-10T22:39:52.568Z,96387.59
2019-04-10T22:42:35.676Z,96389.77
2019-04-10T22:44:55.915Z,96387.95
2019-04-10T22:47:27.403Z,96388.43
2019-04-10T22:50:00.662Z,96391.24
2019-04-10T22:52:30.803Z,96393.31
2019-04-10T22:55:01.406Z,96393.19
2019-04-10T22:57:31.766Z,96392.23
2019-04-10T23:00:03.314Z,96389.77
2019-04-10T23:02:35.430Z,96389.05
2019-04-10T23:05:05.695Z,96395.03
2019-04-10T23:07:35.969Z,96389.41
2019-04-10T23:10:06.351Z,96391.87
2019-04-10T23:12:49.629Z,96394.91
2019-04-10T23:15:09.207Z,96390.75
2019-04-10T23:17:39.514Z,96391.61
2019-04-10T23:20:10.706Z,96393.94
2019-04-10T23:22:41.267Z,96390.05
2019-04-10T23:25:11.969Z,96388.92
2019-04-10T23:27:42.324Z,96391.38
2019-04-10T23:30:17.016Z,96394.19
2019-04-10T23:32:48.602Z,96395.16
2019-04-10T23:35:21.277Z,96388.31
2019-04-10T23:37:51.463Z,96394.67
2019-04-10T23:40:21.683Z,96399.56
2019-04-10T23:43:03.001Z,96400.52
2019-04-10T23:45:23.907Z,96402.86
2019-04-10T23:47:54.183Z,96414.55
2019-04-10T23:50:24.334Z,96408.96
2019-04-10T23:52:56.228Z,96411.52
2019-04-10T23:55:26.497Z,96422.73
2019-04-10T23:57:57.838Z,96432.86
